Time;durP1;ratioP1;P1;durP2;ratioP2;P2;SDS_P1;SDS_P2;PMS_P1;PMS_P2;Temp;Humidity;BMP_temperature;BMP_pressure;BME280_temperature;BME280_humidity;BME280_pressure;Samples;Min_cycle;Max_cycle;Signal;HPM_P1;HPM_P2
2021/06/18 00:01:15;;;;;;;9.6;4.6;;;;;;;20.02;62.99512;936.7589;;;;
2021/06/18 00:03:40;;;;;;;6.2;3.8;;;;;;;20.1;63.63672;936.7537;;;;
2021/06/18 00:06:07;;;;;;;6.8;4.2;;;;;;;20.13;62.96484;936.7583;;;;
2021/06/18 00:08:32;;;;;;;6.6;4.4;;;;;;;19.94;63.41504;936.7855;;;;
2021/06/18 00:11:01;;;;;;;7.2;4.4;;;;;;;19.84;63.63379;936.7569;;;;
2021/06/18 00:13:26;;;;;;;6.2;4.2;;;;;;;19.83;64.24023;936.7514;;;;
2021/06/18 00:15:59;;;;;;;6.4;3.9;;;;;;;19.78;64.32617;936.7447;;;;
2021/06/18 00:18:24;;;;;;;6.1;4.2;;;;;;;19.71;64.6416;936.7101;;;;
2021/06/18 00:20:51;;;;;;;8.1;4.8;;;;;;;19.73;64.69238;936.6553;;;;
2021/06/18 00:23:17;;;;;;;5.4;4.4;;;;;;;19.69;64.90625;936.7123;;;;
2021/06/18 00:25:43;;;;;;;6;4.5;;;;;;;19.64;64.44434;936.7017;;;;
2021/06/18 00:28:08;;;;;;;7.7;4.4;;;;;;;19.58;64.82129;936.8127;;;;
2021/06/18 00:30:38;;;;;;;6.1;4.7;;;;;;;19.67;64.99805;936.7849;;;;
2021/06/18 00:33:03;;;;;;;6.1;3.9;;;;;;;19.77;64.42969;936.7861;;;;
2021/06/18 00:35:36;;;;;;;8.9;4.5;;;;;;;19.81;63.89844;936.7896;;;;
2021/06/18 00:38:04;;;;;;;5.9;4.1;;;;;;;19.73;64.3877;936.8283;;;;
2021/06/18 00:40:29;;;;;;;6.8;4.2;;;;;;;19.42;64.89063;936.8894;;;;
2021/06/18 00:42:57;;;;;;;7.6;4.3;;;;;;;19.25;65.55371;936.8298;;;;
2021/06/18 00:45:22;;;;;;;7;3.9;;;;;;;19.4;65.2959;936.7936;;;;
2021/06/18 00:47:58;;;;;;;5.4;4.2;;;;;;;19.52;64.83691;936.8892;;;;
2021/06/18 00:50:26;;;;;;;6.2;3.8;;;;;;;19.62;64.16406;936.8432;;;;
2021/06/18 00:52:51;;;;;;;5.9;3.9;;;;;;;19.67;64.28711;936.9052;;;;
2021/06/18 00:55:17;;;;;;;7.4;4.5;;;;;;;19.65;64.64453;936.8363;;;;
2021/06/18 00:57:43;;;;;;;5.7;4.1;;;;;;;19.54;64.76855;936.8616;;;;
2021/06/18 01:00:12;;;;;;;5.2;4.1;;;;;;;19.46;65.01367;936.8262;;;;
2021/06/18 01:02:37;;;;;;;6;4.1;;;;;;;19.48;64.99316;936.8508;;;;
2021/06/18 01:05:03;;;;;;;6;4.7;;;;;;;19.43;64.79883;936.7949;;;;
2021/06/18 01:07:28;;;;;;;6.1;4.3;;;;;;;19.36;64.57813;936.7723;;;;
2021/06/18 01:09:53;;;;;;;5.7;4;;;;;;;19.44;64.64844;936.6848;;;;
2021/06/18 01:12:18;;;;;;;6.6;4.4;;;;;;;19.49;64.29492;936.7019;;;;
2021/06/18 01:14:43;;;;;;;7.8;4.5;;;;;;;19.48;64.27051;936.6852;;;;
2021/06/18 01:17:08;;;;;;;5.3;3.8;;;;;;;19.52;64.07813;936.7262;;;;
2021/06/18 01:19:33;;;;;;;6.2;3.8;;;;;;;19.52;64.2998;936.6947;;;;
2021/06/18 01:22:00;;;;;;;6.8;4;;;;;;;19.52;64.00781;936.71;;;;
2021/06/18 01:24:25;;;;;;;5.8;4.2;;;;;;;19.53;64.7666;936.662;;;;
2021/06/18 01:26:53;;;;;;;6.8;4.1;;;;;;;19.39;64.81738;936.6389;;;;
2021/06/18 01:29:18;;;;;;;6.8;4.6;;;;;;;19.35;64.93848;936.6425;;;;
2021/06/18 01:31:43;;;;;;;5.7;4.3;;;;;;;19.37;64.94238;936.5886;;;;
2021/06/18 01:34:08;;;;;;;8.3;4.3;;;;;;;19.47;64.61914;936.5772;;;;
2021/06/18 01:36:33;;;;;;;4.7;3.8;;;;;;;19.51;64.53125;936.5552;;;;
2021/06/18 01:38:58;;;;;;;6;4.1;;;;;;;19.44;65.0332;936.5862;;;;
2021/06/18 01:41:25;;;;;;;6.5;4.3;;;;;;;19.47;65.08398;936.6008;;;;
2021/06/18 01:43:51;;;;;;;4.8;4.2;;;;;;;19.31;65.7373;936.5352;;;;
2021/06/18 01:46:18;;;;;;;7.1;4.4;;;;;;;19.28;65.51172;936.4973;;;;
2021/06/18 01:48:43;;;;;;;6.5;4.7;;;;;;;19.38;65.26953;936.4373;;;;
2021/06/18 01:51:09;;;;;;;8.4;4.2;;;;;;;19.19;65.94043;936.413;;;;
2021/06/18 01:53:35;;;;;;;7;4.6;;;;;;;19.22;66.13086;936.377;;;;
2021/06/18 01:56:00;;;;;;;6.7;4.2;;;;;;;19.32;65.81934;936.2781;;;;
2021/06/18 01:58:25;;;;;;;9.4;4.7;;;;;;;19.31;66.17969;936.343;;;;
2021/06/18 02:00:50;;;;;;;6.8;4.4;;;;;;;19.3;66.22461;936.2729;;;;
2021/06/18 02:03:19;;;;;;;5;4.5;;;;;;;19.35;65.77734;936.3025;;;;
2021/06/18 02:05:44;;;;;;;6.1;4.4;;;;;;;19.29;65.71094;936.3412;;;;
2021/06/18 02:08:10;;;;;;;6.1;4.8;;;;;;;19.26;65.59082;936.2709;;;;
2021/06/18 02:10:36;;;;;;;5.5;4.4;;;;;;;19.13;65.94434;936.2991;;;;
2021/06/18 02:13:04;;;;;;;7.2;4.9;;;;;;;19.14;66.64258;936.2838;;;;
2021/06/18 02:15:36;;;;;;;6.7;4.8;;;;;;;19.22;66.17773;936.2905;;;;
2021/06/18 02:18:02;;;;;;;6.6;4.4;;;;;;;19.19;66.21973;936.2872;;;;
2021/06/18 02:20:28;;;;;;;6.7;4.9;;;;;;;19.15;66.65723;936.2372;;;;
2021/06/18 02:22:54;;;;;;;6.4;4.6;;;;;;;19.23;66.24902;936.3582;;;;
2021/06/18 02:25:23;;;;;;;7.1;4.4;;;;;;;19.26;66.17285;936.3113;;;;
2021/06/18 02:27:48;;;;;;;7.7;5.1;;;;;;;19.26;66.98633;936.2823;;;;
2021/06/18 02:30:14;;;;;;;5.9;4.4;;;;;;;19.32;66.64648;936.2356;;;;
2021/06/18 02:32:39;;;;;;;7.4;4.7;;;;;;;19.28;66.75781;936.2558;;;;
2021/06/18 02:35:07;;;;;;;10.3;5.3;;;;;;;19.18;66.73145;936.2704;;;;
2021/06/18 02:37:32;;;;;;;7.2;4.7;;;;;;;19.08;67.19336;936.2601;;;;
2021/06/18 02:39:57;;;;;;;6;4.9;;;;;;;19.07;67.37695;936.2847;;;;
2021/06/18 02:42:22;;;;;;;5.5;4.2;;;;;;;18.84;68.54102;936.2759;;;;
2021/06/18 02:44:48;;;;;;;6.7;4.8;;;;;;;18.87;68.35938;936.2598;;;;
2021/06/18 02:47:13;;;;;;;6.3;4.8;;;;;;;18.75;68.73633;936.3334;;;;
2021/06/18 02:49:40;;;;;;;8;5.1;;;;;;;18.78;68.66113;936.3279;;;;
2021/06/18 02:52:05;;;;;;;8.2;5.5;;;;;;;18.9;68.48145;936.3679;;;;
2021/06/18 02:54:31;;;;;;;8.9;5.1;;;;;;;18.96;68.58301;936.3236;;;;
2021/06/18 02:56:57;;;;;;;8.4;5.5;;;;;;;18.99;68.15625;936.3074;;;;
2021/06/18 02:59:22;;;;;;;7.5;5.5;;;;;;;18.83;68.85449;936.3398;;;;
2021/06/18 03:01:47;;;;;;;9.1;5;;;;;;;18.76;69.0293;936.4228;;;;
2021/06/18 03:04:12;;;;;;;8.3;5.9;;;;;;;18.73;69.24414;936.397;;;;
2021/06/18 03:06:37;;;;;;;6.3;5.4;;;;;;;18.69;69.33203;936.4455;;;;
2021/06/18 03:09:02;;;;;;;8.7;5.4;;;;;;;18.73;69.24414;936.4664;;;;
2021/06/18 03:11:31;;;;;;;7.6;5.2;;;;;;;18.61;70.14453;936.3911;;;;
2021/06/18 03:13:56;;;;;;;9.7;5.5;;;;;;;18.73;69.61621;936.4519;;;;
2021/06/18 03:16:25;;;;;;;7.4;5.3;;;;;;;18.79;69.0332;936.5011;;;;
2021/06/18 03:18:50;;;;;;;6.5;5.1;;;;;;;18.76;69.4248;936.4792;;;;
2021/06/18 03:21:15;;;;;;;6.2;5.1;;;;;;;18.71;69.48535;936.5153;;;;
2021/06/18 03:23:41;;;;;;;7.5;5;;;;;;;18.64;69.84766;936.5355;;;;
2021/06/18 03:26:09;;;;;;;8.9;5.3;;;;;;;18.62;70.25195;936.5251;;;;
2021/06/18 03:28:34;;;;;;;10.8;6.2;;;;;;;18.59;70.02441;936.5168;;;;
2021/06/18 03:31:07;;;;;;;7.6;5.2;;;;;;;18.61;69.87695;936.5364;;;;
2021/06/18 03:33:28;;;;;;;7.1;5.6;;;;;;;18.54;70.34277;936.572;;;;
2021/06/18 03:35:53;;;;;;;10.8;6.2;;;;;;;18.46;70.5625;936.5602;;;;
2021/06/18 03:38:18;;;;;;;6.4;5.6;;;;;;;18.58;70.33789;936.6026;;;;
2021/06/18 03:40:45;;;;;;;8.1;5.6;;;;;;;18.73;69.94238;936.598;;;;
2021/06/18 03:43:11;;;;;;;10.7;5.7;;;;;;;18.63;70.10059;936.6487;;;;
2021/06/18 03:45:38;;;;;;;8.2;6.1;;;;;;;18.47;70.94824;936.6486;;;;
2021/06/18 03:48:03;;;;;;;8.9;5.8;;;;;;;18.49;70.97363;936.6974;;;;
2021/06/18 03:50:29;;;;;;;8.4;5.9;;;;;;;18.33;71.19238;936.7242;;;;
2021/06/18 03:52:54;;;;;;;9.4;5.6;;;;;;;18.34;71.35645;936.7505;;;;
2021/06/18 03:55:19;;;;;;;12.2;6.3;;;;;;;18.52;71.30664;936.8981;;;;
2021/06/18 03:57:45;;;;;;;7.5;5.2;;;;;;;18.68;70.0166;936.8677;;;;
2021/06/18 04:02:32;;;;;;;10.5;5.8;;;;;;;19.02;69.34766;936.9258;;;;
2021/06/18 04:04:57;;;;;;;10.5;5.6;;;;;;;19.14;69.19336;936.96;;;;
2021/06/18 04:07:25;;;;;;;7.4;5.4;;;;;;;19.22;68.07617;936.9726;;;;
2021/06/18 04:09:51;;;;;;;7.8;5.2;;;;;;;19.24;68.75488;937.0007;;;;
2021/06/18 04:12:18;;;;;;;7.7;5.2;;;;;;;19.37;69.13672;936.9778;;;;
2021/06/18 04:14:44;;;;;;;7.4;5.3;;;;;;;19.48;67.4873;937.0421;;;;
2021/06/18 04:17:11;;;;;;;10.1;5.6;;;;;;;19.48;68.2666;937.0447;;;;
2021/06/18 04:19:41;;;;;;;8.2;5;;;;;;;19.5;68.18945;937.0578;;;;
2021/06/18 04:22:06;;;;;;;9.2;5.8;;;;;;;19.59;68.56641;937.0507;;;;
2021/06/18 04:24:31;;;;;;;7.8;5;;;;;;;19.76;67.68066;937.0514;;;;
2021/06/18 04:26:56;;;;;;;9.4;4.9;;;;;;;19.85;67.10059;937.053;;;;
2021/06/18 04:29:25;;;;;;;8.4;5.4;;;;;;;19.97;67.09473;937.0206;;;;
2021/06/18 04:31:50;;;;;;;9.8;5.7;;;;;;;20.04;66.79004;937.0836;;;;
2021/06/18 04:34:19;;;;;;;9.8;5.8;;;;;;;20.14;68.24023;937.063;;;;
2021/06/18 04:36:44;;;;;;;9.6;5.1;;;;;;;20.23;66.99512;937.1195;;;;
2021/06/18 04:39:09;;;;;;;8.3;5.3;;;;;;;20.33;69.77734;937.1061;;;;
2021/06/18 04:41:34;;;;;;;6.8;5.5;;;;;;;20.3;69.94824;937.1351;;;;
2021/06/18 04:43:59;;;;;;;7.7;5.2;;;;;;;20.49;67.93359;937.1479;;;;
2021/06/18 04:46:25;;;;;;;10.5;5.5;;;;;;;20.64;67.44238;937.1372;;;;
2021/06/18 04:48:51;;;;;;;8.3;5.5;;;;;;;20.77;66.1416;937.1411;;;;
2021/06/18 04:51:16;;;;;;;8.4;5.6;;;;;;;20.9;68.14844;937.2286;;;;
2021/06/18 04:53:43;;;;;;;9.7;5.8;;;;;;;21.05;66.25391;937.1942;;;;
2021/06/18 04:56:07;;;;;;;13.2;7;;;;;;;21.15;64.13965;937.2242;;;;
2021/06/18 04:58:33;;;;;;;14.6;6.8;;;;;;;21.19;66.47461;937.1741;;;;
2021/06/18 05:00:58;;;;;;;12.2;7;;;;;;;21.07;66.43359;937.2517;;;;
2021/06/18 05:03:24;;;;;;;14.2;7.3;;;;;;;21.52;64.4043;937.248;;;;
2021/06/18 05:05:49;;;;;;;14.7;7.5;;;;;;;22.23;60.64844;937.2405;;;;
2021/06/18 05:08:15;;;;;;;15.7;7;;;;;;;23.2;57.32617;937.1852;;;;
2021/06/18 05:10:40;;;;;;;14;6.6;;;;;;;24;55.07422;937.1853;;;;
2021/06/18 05:13:08;;;;;;;8;5.8;;;;;;;24.2;53.41406;937.1914;;;;
2021/06/18 05:15:43;;;;;;;10.2;5.9;;;;;;;24.12;54.13477;937.1948;;;;
2021/06/18 05:18:08;;;;;;;10.7;5.7;;;;;;;24.22;54.38281;937.1766;;;;
2021/06/18 05:20:37;;;;;;;10.2;5.5;;;;;;;25.02;51.35352;937.1043;;;;
2021/06/18 05:23:02;;;;;;;10.3;5.6;;;;;;;25.57;51.71191;937.1319;;;;
2021/06/18 05:25:31;;;;;;;9.7;5.9;;;;;;;26.46;48.80762;937.1161;;;;
2021/06/18 05:27:56;;;;;;;10.6;5.5;;;;;;;27.28;46.71582;937.0953;;;;
2021/06/18 05:30:25;;;;;;;8.5;5.6;;;;;;;27.73;47.37988;937.1418;;;;
2021/06/18 05:32:50;;;;;;;8.9;5.3;;;;;;;28.6;43.79492;937.1319;;;;
2021/06/18 05:35:16;;;;;;;9.7;5.4;;;;;;;28.39;44.06055;937.1641;;;;
2021/06/18 05:37:51;;;;;;;5.2;4.6;;;;;;;29.02;43.27637;937.1217;;;;
2021/06/18 05:40:10;;;;;;;8.7;4.9;;;;;;;29.19;41.43555;937.1164;;;;
2021/06/18 05:42:40;;;;;;;5.9;4.9;;;;;;;29.78;40.96484;937.106;;;;
2021/06/18 05:45:04;;;;;;;9.1;5.3;;;;;;;29.8;39.55957;937.092;;;;
2021/06/18 05:47:34;;;;;;;7.5;5.5;;;;;;;29.99;39.8623;937.1161;;;;
2021/06/18 05:50:04;;;;;;;13.7;6.1;;;;;;;30.54;39.37305;937.1161;;;;
2021/06/18 05:52:29;;;;;;;10.3;5.5;;;;;;;30.1;42.1748;937.1314;;;;
2021/06/18 05:54:57;;;;;;;11.5;6.5;;;;;;;30.13;40.13672;937.0998;;;;
2021/06/18 05:57:23;;;;;;;9;5.5;;;;;;;30.62;38.30469;937.0995;;;;
2021/06/18 05:59:47;;;;;;;6;5.4;;;;;;;29.61;39.54297;937.0528;;;;
2021/06/18 06:02:14;;;;;;;9.3;5.9;;;;;;;30.04;41.04883;937.0728;;;;
2021/06/18 06:04:39;;;;;;;8.7;6;;;;;;;31.17;37.95605;937.0873;;;;
2021/06/18 06:07:06;;;;;;;7.6;5.1;;;;;;;31.54;37.04102;937.0428;;;;
2021/06/18 06:09:31;;;;;;;8.2;4.6;;;;;;;31.56;36.24121;937.0284;;;;
2021/06/18 06:11:59;;;;;;;5.8;4.6;;;;;;;31.49;35.45801;937.009;;;;
2021/06/18 06:14:27;;;;;;;7.4;5.2;;;;;;;32.26;34.88184;936.9465;;;;
2021/06/18 06:16:55;;;;;;;9.1;5.2;;;;;;;33.15;33.76172;936.9291;;;;
2021/06/18 06:19:23;;;;;;;9.7;5.3;;;;;;;33.29;33.5791;936.8897;;;;
2021/06/18 06:21:48;;;;;;;8.1;5.2;;;;;;;32.76;33.88867;936.9483;;;;
2021/06/18 06:24:14;;;;;;;8.7;4.9;;;;;;;33.04;33.87305;936.9065;;;;
2021/06/18 06:26:39;;;;;;;9.1;5.6;;;;;;;32.32;36.23047;936.9369;;;;
2021/06/18 06:29:06;;;;;;;6.5;5;;;;;;;32.69;34.49512;936.8599;;;;
2021/06/18 06:31:31;;;;;;;6.7;5;;;;;;;32.15;35.40234;936.8547;;;;
2021/06/18 06:34:00;;;;;;;8.5;5;;;;;;;33.46;34.31348;936.8926;;;;
2021/06/18 06:36:30;;;;;;;8.7;5.1;;;;;;;34.1;33.66309;936.817;;;;
2021/06/18 06:38:56;;;;;;;9.3;5.6;;;;;;;34.77;30.51758;936.818;;;;
2021/06/18 06:41:23;;;;;;;7.5;5.1;;;;;;;35.27;29.8623;936.8258;;;;
2021/06/18 06:43:48;;;;;;;5.6;5.1;;;;;;;34.67;29.64258;936.8353;;;;
2021/06/18 06:46:13;;;;;;;6.1;5.4;;;;;;;35.02;31.42578;936.8463;;;;
2021/06/18 06:48:39;;;;;;;6.1;5;;;;;;;35.97;29.41309;936.8183;;;;
2021/06/18 06:51:06;;;;;;;11.5;5.5;;;;;;;36.17;28.48242;936.8323;;;;
2021/06/18 06:53:32;;;;;;;6;5;;;;;;;35.26;28.57031;936.8569;;;;
2021/06/18 06:55:57;;;;;;;6;5;;;;;;;35.3;29.35742;936.7358;;;;
2021/06/18 06:58:22;;;;;;;5.7;5.1;;;;;;;34.54;29.59766;936.8089;;;;
2021/06/18 07:00:47;;;;;;;7.1;5.2;;;;;;;34.67;29.93164;936.7536;;;;
2021/06/18 07:03:13;;;;;;;58.7;7.3;;;;;;;35.56;31.33105;936.7461;;;;
2021/06/18 07:05:38;;;;;;;29.1;6.3;;;;;;;36.2;27.98828;936.7494;;;;
2021/06/18 07:08:04;;;;;;;9.6;5.8;;;;;;;35.85;28.18359;936.7584;;;;
2021/06/18 07:10:29;;;;;;;7.2;5.2;;;;;;;36.23;29.0791;936.7531;;;;
2021/06/18 07:12:55;;;;;;;24.6;6.7;;;;;;;36.06;28.42676;936.6808;;;;
2021/06/18 07:15:20;;;;;;;10.7;5.4;;;;;;;37.18;28.08398;936.6855;;;;
2021/06/18 07:17:50;;;;;;;17.4;5.9;;;;;;;36.55;27.7793;936.7336;;;;
2021/06/18 07:20:19;;;;;;;11.5;5.6;;;;;;;36.25;29.52734;936.7476;;;;
2021/06/18 07:22:44;;;;;;;10.4;5.6;;;;;;;36.87;28.35645;936.7209;;;;
2021/06/18 07:25:14;;;;;;;6.9;5.6;;;;;;;37.73;27.65723;936.7352;;;;
2021/06/18 07:27:47;;;;;;;8.4;6.1;;;;;;;36.43;28.65527;936.7455;;;;
2021/06/18 07:30:18;;;;;;;8.7;5.9;;;;;;;37.11;27.0127;936.7274;;;;
2021/06/18 07:32:50;;;;;;;7.3;5.3;;;;;;;37.15;27.7793;936.6973;;;;
2021/06/18 07:35:22;;;;;;;12.4;5.4;;;;;;;37.54;27.45117;936.6936;;;;
2021/06/18 07:37:51;;;;;;;6.5;5.7;;;;;;;35.36;28.99902;936.7277;;;;
2021/06/18 07:40:21;;;;;;;6;5.2;;;;;;;35.26;30.70703;936.7263;;;;
2021/06/18 07:42:46;;;;;;;7.4;5.5;;;;;;;36.16;30.12598;936.7099;;;;
2021/06/18 07:45:14;;;;;;;6.9;5.5;;;;;;;36.81;28.88574;936.7305;;;;
2021/06/18 07:47:39;;;;;;;7.7;5.3;;;;;;;38.41;27.87988;936.7683;;;;
2021/06/18 07:50:07;;;;;;;6.9;5.4;;;;;;;39.03;28.06348;936.8142;;;;
2021/06/18 07:52:33;;;;;;;20.6;5.7;;;;;;;39.63;25.99121;936.7997;;;;
2021/06/18 07:55:02;;;;;;;11.8;5.3;;;;;;;39.08;27.20215;936.7795;;;;
2021/06/18 07:57:26;;;;;;;14.8;5.5;;;;;;;39.72;26.05859;936.8145;;;;
2021/06/18 07:59:52;;;;;;;6.4;5.4;;;;;;;38.68;28.58984;936.85;;;;
2021/06/18 08:02:19;;;;;;;8;5.5;;;;;;;38.14;28.95703;936.8134;;;;
2021/06/18 08:04:44;;;;;;;10.5;5.2;;;;;;;39.56;25.18457;936.8351;;;;
2021/06/18 08:07:09;;;;;;;7.7;5.7;;;;;;;39.15;26.81738;936.8453;;;;
2021/06/18 08:09:39;;;;;;;10.5;5.5;;;;;;;39.38;25.24707;936.8324;;;;
2021/06/18 08:12:04;;;;;;;6;4.9;;;;;;;39.5;25.48438;936.753;;;;
2021/06/18 08:14:30;;;;;;;11.4;5.4;;;;;;;39.68;25.12891;936.755;;;;
2021/06/18 08:17:05;;;;;;;6.4;5;;;;;;;39.68;26.28711;936.7033;;;;
2021/06/18 08:19:30;;;;;;;7;4.7;;;;;;;38.55;28.19238;936.6373;;;;
2021/06/18 08:21:55;;;;;;;5.8;4.6;;;;;;;39.56;24.84277;936.6361;;;;
2021/06/18 08:24:23;;;;;;;7.3;4.5;;;;;;;38.95;27.59668;936.6696;;;;
2021/06/18 08:26:49;;;;;;;5.1;4.5;;;;;;;39.95;26.13184;936.6177;;;;
2021/06/18 08:29:16;;;;;;;6.1;4.5;;;;;;;40.1;25.25;936.5625;;;;
2021/06/18 08:31:42;;;;;;;7;4.7;;;;;;;38.55;29.14063;936.584;;;;
2021/06/18 08:34:11;;;;;;;5;4.5;;;;;;;37.7;28.85645;936.5524;;;;
2021/06/18 08:36:36;;;;;;;7.2;4.8;;;;;;;37.51;29.21973;936.5055;;;;
2021/06/18 08:39:03;;;;;;;6;4.5;;;;;;;37.82;28.29297;936.5753;;;;
2021/06/18 08:41:28;;;;;;;5.3;4.8;;;;;;;38.79;27.97559;936.6286;;;;
2021/06/18 08:43:53;;;;;;;6.9;4.8;;;;;;;38.92;27.88672;936.6278;;;;
2021/06/18 08:46:21;;;;;;;4.9;4.2;;;;;;;38.78;27.26953;936.6946;;;;
2021/06/18 08:48:47;;;;;;;6.1;5.3;;;;;;;38.34;28.41016;936.6635;;;;
2021/06/18 08:51:11;;;;;;;5.9;4.9;;;;;;;38.26;28.12598;936.6945;;;;
2021/06/18 08:53:36;;;;;;;4.9;4.3;;;;;;;38.37;27.46484;936.6631;;;;
2021/06/18 08:56:02;;;;;;;5.2;4.6;;;;;;;37.31;29.88672;936.6616;;;;
2021/06/18 08:58:27;;;;;;;10.7;5.2;;;;;;;36.68;30.52344;936.6631;;;;
2021/06/18 09:00:52;;;;;;;11;5.1;;;;;;;36.62;29.4541;936.5769;;;;
2021/06/18 09:03:19;;;;;;;20.9;5.9;;;;;;;37.21;31.30957;936.5773;;;;
2021/06/18 09:05:44;;;;;;;6.5;4.4;;;;;;;37.79;28.18164;936.5683;;;;
2021/06/18 09:08:10;;;;;;;10.1;5.2;;;;;;;38.06;28.40527;936.6166;;;;
2021/06/18 09:10:39;;;;;;;5.3;4.3;;;;;;;38.42;28.61035;936.5708;;;;
2021/06/18 09:13:02;;;;;;;5.1;4.6;;;;;;;38.02;29.22852;936.5206;;;;
2021/06/18 09:15:31;;;;;;;5.7;4.6;;;;;;;37.01;30.44922;936.5151;;;;
2021/06/18 09:17:56;;;;;;;6;4.3;;;;;;;36.9;30.62305;936.449;;;;
2021/06/18 09:20:25;;;;;;;5.2;4.7;;;;;;;36.44;31.875;936.4241;;;;
2021/06/18 09:22:50;;;;;;;5.1;4.6;;;;;;;36.82;31.23535;936.4224;;;;
2021/06/18 09:25:16;;;;;;;11.9;4.6;;;;;;;36.36;31.97852;936.4044;;;;
2021/06/18 09:27:41;;;;;;;13.2;4.8;;;;;;;35.77;34.07617;936.3632;;;;
2021/06/18 09:30:06;;;;;;;6;4.9;;;;;;;36.05;31.78809;936.3948;;;;
2021/06/18 09:32:35;;;;;;;7.9;5.4;;;;;;;34.75;33.73535;936.3669;;;;
2021/06/18 09:35:00;;;;;;;22.3;6.2;;;;;;;35.35;32.58398;936.3703;;;;
2021/06/18 09:37:29;;;;;;;8.6;4.8;;;;;;;36.11;33.60645;936.3837;;;;
2021/06/18 09:39:51;;;;;;;6.8;4.9;;;;;;;34.35;35.34375;936.3945;;;;
2021/06/18 09:42:24;;;;;;;5;4.4;;;;;;;33.97;35.33789;936.4036;;;;
2021/06/18 09:44:45;;;;;;;6.9;4.8;;;;;;;34.41;35.58887;936.4336;;;;
2021/06/18 09:47:10;;;;;;;11.2;5.4;;;;;;;34.85;33.57324;936.4036;;;;
2021/06/18 09:49:38;;;;;;;9;5.6;;;;;;;34.44;34.89258;936.4194;;;;
2021/06/18 09:52:03;;;;;;;5.9;5.3;;;;;;;33.85;36.76074;936.3837;;;;
2021/06/18 09:54:32;;;;;;;5.7;4.8;;;;;;;32.64;37.87598;936.2675;;;;
2021/06/18 09:56:55;;;;;;;7.1;4.7;;;;;;;32.49;38.25977;936.2633;;;;
2021/06/18 09:59:20;;;;;;;11.6;4.7;;;;;;;32.81;38.99414;936.3356;;;;
2021/06/18 10:01:49;;;;;;;10.4;5.4;;;;;;;32.62;40.11816;936.3176;;;;
2021/06/18 10:04:14;;;;;;;10.7;5.5;;;;;;;32.3;40.89355;936.3345;;;;
2021/06/18 10:06:40;;;;;;;5.8;5.2;;;;;;;32.51;40.26465;936.3298;;;;
2021/06/18 10:09:05;;;;;;;9.1;5.2;;;;;;;32.4;37.67578;936.3051;;;;
2021/06/18 10:11:31;;;;;;;6.2;4.7;;;;;;;32.56;39.30957;936.2665;;;;
2021/06/18 10:13:56;;;;;;;9.4;5.3;;;;;;;32.34;38.91797;936.3119;;;;
2021/06/18 10:16:22;;;;;;;10.4;5.9;;;;;;;32.57;38.56543;936.2656;;;;
2021/06/18 10:18:47;;;;;;;6.8;5.5;;;;;;;32.7;37.84375;936.2849;;;;
2021/06/18 10:21:18;;;;;;;9.3;5.8;;;;;;;32.49;40.01074;936.3321;;;;
2021/06/18 10:23:45;;;;;;;9.4;5.4;;;;;;;32.57;40.00586;936.241;;;;
2021/06/18 10:26:12;;;;;;;8.7;5.8;;;;;;;31.8;41.23145;936.2712;;;;
2021/06/18 10:28:36;;;;;;;6.7;5.1;;;;;;;31.91;41.67285;936.2685;;;;
2021/06/18 10:31:03;;;;;;;18.3;6.4;;;;;;;32.32;40.60645;936.2944;;;;
2021/06/18 10:33:28;;;;;;;7.3;5.2;;;;;;;32.49;39.44727;936.2404;;;;
2021/06/18 10:35:58;;;;;;;8;5.8;;;;;;;32.31;39.81543;936.2832;;;;
2021/06/18 10:38:18;;;;;;;6.1;5.5;;;;;;;32.49;38.27148;936.2503;;;;
2021/06/18 10:40:49;;;;;;;5.9;5.3;;;;;;;32.41;39.12793;936.2383;;;;
2021/06/18 10:43:14;;;;;;;8.7;5.4;;;;;;;32.85;37.97656;936.144;;;;
2021/06/18 10:45:41;;;;;;;7.9;5.5;;;;;;;32.88;39.25293;936.197;;;;
2021/06/18 10:48:09;;;;;;;8.9;5.8;;;;;;;32.15;40.11328;936.212;;;;
2021/06/18 10:50:34;;;;;;;6.3;5.6;;;;;;;32.15;41.95898;936.2107;;;;
2021/06/18 10:53:01;;;;;;;6.2;5.4;;;;;;;31.76;41.58691;936.1548;;;;
2021/06/18 10:55:28;;;;;;;6.8;5.2;;;;;;;32.03;39.71875;936.0909;;;;
2021/06/18 10:57:58;;;;;;;8.3;5.7;;;;;;;32.15;39.05859;936.0884;;;;
2021/06/18 11:00:21;;;;;;;7.2;5.4;;;;;;;32.1;39.94043;936.0934;;;;
2021/06/18 11:02:47;;;;;;;5.8;5;;;;;;;31.75;41.95801;936.06;;;;
2021/06/18 11:05:12;;;;;;;10.1;5.5;;;;;;;31.18;41.21094;936.0623;;;;
2021/06/18 11:07:37;;;;;;;16;6.5;;;;;;;30.96;43.05664;936.0303;;;;
2021/06/18 11:10:06;;;;;;;6.2;5.3;;;;;;;30.44;44.32129;936.0873;;;;
2021/06/18 11:12:31;;;;;;;8.8;5.8;;;;;;;30.74;43.32129;936.0092;;;;
2021/06/18 11:14:59;;;;;;;13.2;5.5;;;;;;;31.17;41.54492;935.9822;;;;
2021/06/18 11:17:24;;;;;;;8.6;5.7;;;;;;;31.24;43.20313;935.9017;;;;
2021/06/18 11:19:49;;;;;;;9.3;5.8;;;;;;;31.37;41.21582;935.9172;;;;
2021/06/18 11:22:16;;;;;;;14.2;6;;;;;;;30.84;42.77051;935.8405;;;;
2021/06/18 11:24:42;;;;;;;5.8;5.2;;;;;;;31.31;42.87402;935.8678;;;;
2021/06/18 11:27:06;;;;;;;8.5;5.7;;;;;;;31.31;42.46777;935.8652;;;;
2021/06/18 11:29:34;;;;;;;10.1;5.7;;;;;;;31.4;41.88867;935.7918;;;;
2021/06/18 11:32:01;;;;;;;6.7;5.5;;;;;;;31.62;42.29297;935.8561;;;;
2021/06/18 11:34:27;;;;;;;6.8;5.5;;;;;;;31.72;41.56055;935.7892;;;;
2021/06/18 11:36:56;;;;;;;7.1;5.5;;;;;;;31.72;40.02637;935.7854;;;;
2021/06/18 11:39:21;;;;;;;5.9;5.3;;;;;;;32.11;40.15625;935.8658;;;;
2021/06/18 11:41:51;;;;;;;6.9;6.1;;;;;;;31.85;42.3623;935.805;;;;
2021/06/18 11:44:19;;;;;;;13.5;5.7;;;;;;;31.95;39.95117;935.8199;;;;
2021/06/18 11:46:44;;;;;;;11;5.3;;;;;;;32.12;40.57715;935.7946;;;;
2021/06/18 11:49:09;;;;;;;7.3;5.5;;;;;;;32.22;40.4668;935.7317;;;;
2021/06/18 11:51:34;;;;;;;12.9;6.5;;;;;;;31.94;39.61523;935.7258;;;;
2021/06/18 11:53:59;;;;;;;11.1;5.9;;;;;;;31.87;41.00977;935.7093;;;;
2021/06/18 11:56:28;;;;;;;9.7;5.3;;;;;;;31.9;39.39648;935.7269;;;;
2021/06/18 11:58:53;;;;;;;6.6;5.2;;;;;;;32;41.10547;935.7847;;;;
2021/06/18 12:01:18;;;;;;;11.9;5.9;;;;;;;31.45;42.14551;935.7975;;;;
2021/06/18 12:03:44;;;;;;;7.5;5.9;;;;;;;31.41;42.01074;935.7841;;;;
2021/06/18 12:06:09;;;;;;;12.5;4.8;;;;;;;31.22;40.83203;935.7516;;;;
2021/06/18 12:08:34;;;;;;;6.9;4.9;;;;;;;31.38;42.80859;935.7186;;;;
2021/06/18 12:11:00;;;;;;;7.3;5.3;;;;;;;31.62;43.17969;935.7411;;;;
2021/06/18 12:13:29;;;;;;;6.4;4.9;;;;;;;31.48;42.44727;935.7316;;;;
2021/06/18 12:16:04;;;;;;;9.2;4.9;;;;;;;31.85;41.76367;935.7506;;;;
2021/06/18 12:18:31;;;;;;;12.8;6.5;;;;;;;32.31;41.00293;935.7343;;;;
2021/06/18 12:20:56;;;;;;;6.7;4.6;;;;;;;32.7;40.24512;935.7484;;;;
2021/06/18 12:23:21;;;;;;;6.9;4.9;;;;;;;32.85;40.4502;935.7266;;;;
2021/06/18 12:25:50;;;;;;;5.4;4.4;;;;;;;32.53;40.00195;935.7;;;;
2021/06/18 12:28:12;;;;;;;5.5;5;;;;;;;32.49;40.64648;935.7203;;;;
2021/06/18 12:30:38;;;;;;;5.1;4.6;;;;;;;32.58;39.5752;935.68;;;;
2021/06/18 12:33:04;;;;;;;5.2;4.5;;;;;;;32.31;40.9541;935.6403;;;;
2021/06/18 12:35:29;;;;;;;5.5;4.5;;;;;;;32.16;41.32422;935.6376;;;;
2021/06/18 12:38:00;;;;;;;5.9;4.5;;;;;;;32.53;39.9541;935.6044;;;;
2021/06/18 12:40:23;;;;;;;5.8;4.7;;;;;;;32.77;38.84766;935.6145;;;;
2021/06/18 12:42:48;;;;;;;5.6;4.8;;;;;;;32.74;39.54102;935.6121;;;;
2021/06/18 12:45:14;;;;;;;5.3;4.2;;;;;;;32.65;39.07715;935.6465;;;;
2021/06/18 12:47:38;;;;;;;7.9;5.1;;;;;;;32.5;39.80664;935.6794;;;;
2021/06/18 12:50:04;;;;;;;7;5.1;;;;;;;32.74;39.68457;935.6223;;;;
2021/06/18 12:52:32;;;;;;;5;4.5;;;;;;;33.09;37.96094;935.6153;;;;
2021/06/18 12:54:57;;;;;;;8.9;5;;;;;;;32.64;40.63574;935.5648;;;;
2021/06/18 12:57:22;;;;;;;5.5;4.5;;;;;;;32.3;39.50293;935.59;;;;
2021/06/18 12:59:47;;;;;;;5.3;4.4;;;;;;;32.58;40.00684;935.563;;;;
2021/06/18 13:02:15;;;;;;;5.3;4.5;;;;;;;33;38.33789;935.5363;;;;
2021/06/18 13:04:40;;;;;;;5.2;4.6;;;;;;;33;38.56641;935.5489;;;;
2021/06/18 13:07:06;;;;;;;7.8;5;;;;;;;32.78;38.53516;935.5623;;;;
2021/06/18 13:09:31;;;;;;;6.8;5;;;;;;;32.94;37.98438;935.5083;;;;
2021/06/18 13:11:56;;;;;;;6.2;4.5;;;;;;;33.16;37.41406;935.5714;;;;
2021/06/18 13:14:22;;;;;;;4.9;4.5;;;;;;;33.41;36.70117;935.582;;;;
2021/06/18 13:16:55;;;;;;;6.8;4.5;;;;;;;33.2;38.99219;935.5026;;;;
2021/06/18 13:19:22;;;;;;;7.8;4.8;;;;;;;32.67;39.49805;935.4886;;;;
2021/06/18 13:21:47;;;;;;;7;4.7;;;;;;;32.83;38.44336;935.4475;;;;
2021/06/18 13:24:15;;;;;;;7.4;4.8;;;;;;;32.63;38.8584;935.4394;;;;
2021/06/18 13:26:40;;;;;;;5.5;4.9;;;;;;;32.42;40.06348;935.5142;;;;
2021/06/18 13:29:06;;;;;;;8.2;5.4;;;;;;;32.5;38.75195;935.4827;;;;
2021/06/18 13:31:31;;;;;;;6.3;4.7;;;;;;;32.57;39.94531;935.4978;;;;
2021/06/18 13:33:57;;;;;;;8.1;4.7;;;;;;;32.55;38.5752;935.5009;;;;
2021/06/18 13:36:22;;;;;;;5.6;4.4;;;;;;;32.27;39.97949;935.4656;;;;
2021/06/18 13:38:48;;;;;;;5.5;4.7;;;;;;;32.34;38.66602;935.4322;;;;
2021/06/18 13:41:15;;;;;;;5.7;4.7;;;;;;;32.33;39.32617;935.3848;;;;
2021/06/18 13:43:40;;;;;;;6.8;5.8;;;;;;;31.96;40.07129;935.377;;;;
2021/06/18 13:46:09;;;;;;;6.3;4.7;;;;;;;31.86;40.8291;935.434;;;;
2021/06/18 13:48:34;;;;;;;5.6;4.6;;;;;;;32.19;38.86914;935.4833;;;;
2021/06/18 13:51:03;;;;;;;6.2;5.1;;;;;;;32.36;40.13086;935.45;;;;
2021/06/18 13:53:28;;;;;;;5.7;4.8;;;;;;;32.84;38.88965;935.4844;;;;
2021/06/18 13:55:55;;;;;;;4.9;4.4;;;;;;;33.1;38.91113;935.4626;;;;
2021/06/18 13:58:20;;;;;;;5.2;4.8;;;;;;;33.11;37.46973;935.4617;;;;
2021/06/18 14:00:45;;;;;;;5.4;4.7;;;;;;;32.59;38.90332;935.4388;;;;
2021/06/18 14:03:10;;;;;;;5.2;4.7;;;;;;;32.03;39.13184;935.4708;;;;
2021/06/18 14:05:35;;;;;;;9.2;5;;;;;;;31.93;39.39746;935.5477;;;;
2021/06/18 14:08:03;;;;;;;5.3;4.8;;;;;;;31.51;40.15137;935.5778;;;;
2021/06/18 14:10:28;;;;;;;7;5.3;;;;;;;31.59;40.4707;935.5419;;;;
2021/06/18 14:12:55;;;;;;;5.8;4.9;;;;;;;31.17;41.64063;935.5076;;;;
2021/06/18 14:15:28;;;;;;;6.3;4.8;;;;;;;30.94;41.96582;935.4817;;;;
2021/06/18 14:17:51;;;;;;;5.9;5.1;;;;;;;30.73;43.05859;935.5396;;;;
2021/06/18 14:20:16;;;;;;;6.2;5;;;;;;;30.96;42.33887;935.4963;;;;